createdAt,value
2022-10-10T00:00:55.298Z,0
2022-10-10T00:01:55.344Z,0
2022-10-10T00:02:56.341Z,0
2022-10-10T00:03:55.070Z,0
2022-10-10T00:04:54.838Z,0
2022-10-10T00:05:54.868Z,0
2022-10-10T00:06:55.120Z,0
2022-10-10T00:07:54.894Z,0
2022-10-10T00:08:58.320Z,0
2022-10-10T00:09:55.181Z,0
2022-10-10T00:10:55.330Z,0
2022-10-10T00:11:55.478Z,0
2022-10-10T00:12:56.318Z,0
2022-10-10T00:13:55.493Z,0
2022-10-10T00:14:56.056Z,0
2022-10-10T00:15:58.663Z,0
2022-10-10T00:16:55.560Z,0
2022-10-10T00:17:55.778Z,0
2022-10-10T00:18:55.117Z,0
2022-10-10T00:19:55.500Z,0
2022-10-10T00:20:55.105Z,0
2022-10-10T00:21:55.632Z,0
2022-10-10T00:22:56.628Z,0
2022-10-10T00:23:55.567Z,0
2022-10-10T00:24:55.198Z,0
2022-10-10T00:25:55.703Z,0
2022-10-10T00:26:55.227Z,0
2022-10-10T00:27:55.743Z,0
2022-10-10T00:28:55.089Z,0
2022-10-10T00:29:55.281Z,0
2022-10-10T00:30:55.531Z,0
2022-10-10T00:31:55.620Z,0
2022-10-10T00:32:56.376Z,0
2022-10-10T00:33:55.588Z,0
2022-10-10T00:34:55.891Z,0
2022-10-10T00:35:55.613Z,0
2022-10-10T00:36:55.639Z,0
2022-10-10T00:37:55.405Z,0
2022-10-10T00:38:55.667Z,0
2022-10-10T00:39:56.141Z,0
2022-10-10T00:40:55.813Z,0
2022-10-10T00:41:55.727Z,0
2022-10-10T00:42:56.906Z,0
2022-10-10T00:43:56.027Z,0
2022-10-10T00:44:55.507Z,0
2022-10-10T00:45:56.054Z,0
2022-10-10T00:46:55.304Z,0
2022-10-10T00:47:56.170Z,0
2022-10-10T00:48:56.124Z,0
2022-10-10T00:49:55.606Z,0
2022-10-10T00:50:56.155Z,0
2022-10-10T00:51:55.656Z,0
2022-10-10T00:52:57.374Z,0
2022-10-10T00:53:56.202Z,0
2022-10-10T00:54:55.944Z,0
2022-10-10T00:55:55.958Z,0
2022-10-10T00:56:56.262Z,0
2022-10-10T00:57:55.748Z,0
2022-10-10T00:58:56.011Z,0
2022-10-10T00:59:55.269Z,0
2022-10-10T01:00:56.709Z,0
2022-10-10T01:01:56.325Z,0
2022-10-10T01:02:57.315Z,0
2022-10-10T01:03:56.419Z,0
2022-10-10T01:04:56.130Z,0
2022-10-10T01:05:55.874Z,0
2022-10-10T01:06:56.188Z,0
2022-10-10T01:07:56.418Z,0
2022-10-10T01:08:56.440Z,0
2022-10-10T01:09:55.965Z,0
2022-10-10T01:10:56.575Z,0
2022-10-10T01:11:55.980Z,0
2022-10-10T01:12:57.411Z,0
2022-10-10T01:13:56.272Z,0
2022-10-10T01:14:56.294Z,0
2022-10-10T01:15:56.302Z,0
2022-10-10T01:16:56.340Z,0
2022-10-10T01:17:56.340Z,0
2022-10-10T01:18:56.352Z,0
2022-10-10T01:19:56.706Z,0
2022-10-10T01:20:56.373Z,0
2022-10-10T01:21:56.507Z,0
2022-10-10T01:22:57.728Z,0
2022-10-10T01:23:56.430Z,0
2022-10-10T01:24:56.719Z,0
2022-10-10T01:25:56.483Z,0
2022-10-10T01:26:56.502Z,0
2022-10-10T01:27:56.764Z,0
2022-10-10T01:28:56.039Z,0
2022-10-10T01:29:56.844Z,0
2022-10-10T01:30:56.551Z,0
2022-10-10T01:31:56.835Z,0
2022-10-10T01:32:58.092Z,0
2022-10-10T01:33:56.357Z,0
2022-10-10T01:34:56.878Z,0
2022-10-10T01:35:56.980Z,0
2022-10-10T01:36:56.670Z,0
2022-10-10T01:37:56.938Z,0
2022-10-10T01:38:56.732Z,0
2022-10-10T01:39:56.963Z,0
2022-10-10T01:40:56.473Z,0
2022-10-10T01:41:56.740Z,0
2022-10-10T01:42:57.742Z,0
2022-10-10T01:43:56.516Z,0
2022-10-10T01:44:56.821Z,0
2022-10-10T01:45:56.816Z,0
2022-10-10T01:46:56.599Z,0
2022-10-10T01:47:56.593Z,0
2022-10-10T01:48:56.864Z,0
2022-10-10T01:49:56.627Z,0
2022-10-10T01:50:56.647Z,0
2022-10-10T01:51:57.243Z,0
2022-10-10T01:52:58.154Z,0
2022-10-10T01:53:56.950Z,0
2022-10-10T01:54:57.252Z,0
2022-10-10T01:55:57.273Z,0
2022-10-10T01:56:56.481Z,0
2022-10-10T01:57:57.280Z,0
2022-10-10T01:58:57.291Z,0
2022-10-10T01:59:56.539Z,0
2022-10-10T02:00:56.959Z,0
2022-10-10T02:01:57.340Z,0
2022-10-10T02:02:58.434Z,0
2022-10-10T02:03:56.858Z,0
2022-10-10T02:04:56.885Z,0
2022-10-10T02:05:57.398Z,0
2022-10-10T02:06:56.917Z,0
2022-10-10T02:07:57.518Z,0
2022-10-10T02:08:56.950Z,0
2022-10-10T02:09:57.471Z,0
2022-10-10T02:10:57.345Z,0
2022-10-10T02:11:57.007Z,0
2022-10-10T02:12:58.536Z,0
2022-10-10T02:13:57.023Z,0
2022-10-10T02:14:57.568Z,0
2022-10-10T02:15:57.582Z,0
2022-10-10T02:16:57.344Z,0
2022-10-10T02:17:57.350Z,0
2022-10-10T02:18:57.374Z,0
2022-10-10T02:19:57.737Z,0
2022-10-10T02:20:57.407Z,0
2022-10-10T02:21:56.910Z,0
2022-10-10T02:22:58.747Z,0
2022-10-10T02:23:57.793Z,0
2022-10-10T02:24:57.466Z,0
2022-10-10T02:25:57.491Z,0
2022-10-10T02:26:57.529Z,0
2022-10-10T02:27:57.775Z,0
2022-10-10T02:28:57.279Z,0
2022-10-10T02:29:57.553Z,0
2022-10-10T02:30:57.311Z,0
2022-10-10T02:31:57.854Z,0
2022-10-10T02:32:58.986Z,0
2022-10-10T02:33:57.862Z,0
2022-10-10T02:34:57.910Z,0
2022-10-10T02:35:57.647Z,0
2022-10-10T02:36:57.670Z,0
2022-10-10T02:37:57.420Z,0
2022-10-10T02:38:57.962Z,0
2022-10-10T02:39:58.233Z,0
2022-10-10T02:40:57.734Z,0
2022-10-10T02:41:57.761Z,0
2022-10-10T02:42:58.887Z,0
2022-10-10T02:43:57.798Z,0
2022-10-10T02:44:57.812Z,0
2022-10-10T02:45:57.570Z,0
2022-10-10T02:46:57.587Z,0
2022-10-10T02:47:57.861Z,0
2022-10-10T02:48:58.146Z,0
2022-10-10T02:49:57.912Z,0
2022-10-10T02:50:57.637Z,0
2022-10-10T02:51:57.943Z,0
2022-10-10T02:52:59.394Z,0
2022-10-10T02:53:58.218Z,0
2022-10-10T02:54:58.223Z,0
2022-10-10T02:55:58.317Z,0
2022-10-10T02:56:57.734Z,0
2022-10-10T02:57:58.038Z,0
2022-10-10T02:58:58.132Z,0
2022-10-10T02:59:57.787Z,0
2022-10-10T03:00:58.123Z,0
2022-10-10T03:01:58.356Z,0
2022-10-10T03:02:59.444Z,0
2022-10-10T03:03:58.120Z,0
2022-10-10T03:04:57.918Z,0
2022-10-10T03:05:58.157Z,0
2022-10-10T03:06:58.161Z,0
2022-10-10T03:07:58.205Z,0
2022-10-10T03:08:58.212Z,0
2022-10-10T03:09:58.224Z,0
2022-10-10T03:10:58.538Z,0
2022-10-10T03:11:58.592Z,0
2022-10-10T03:12:59.287Z,0
2022-10-10T03:13:58.031Z,0
2022-10-10T03:14:58.585Z,0
2022-10-10T03:15:58.061Z,0
2022-10-10T03:16:58.096Z,0
2022-10-10T03:17:58.358Z,0
2022-10-10T03:18:58.382Z,0
2022-10-10T03:19:58.703Z,0
2022-10-10T03:20:58.179Z,0
2022-10-10T03:21:58.424Z,0
2022-10-10T03:22:59.576Z,0
2022-10-10T03:23:58.201Z,0
2022-10-10T03:24:57.963Z,0
2022-10-10T03:25:58.764Z,0
2022-10-10T03:26:58.617Z,0
2022-10-10T03:27:58.853Z,0
2022-10-10T03:28:58.793Z,0
2022-10-10T03:29:58.570Z,0
2022-10-10T03:30:58.870Z,0
2022-10-10T03:31:58.597Z,0
2022-10-10T03:32:59.539Z,0
2022-10-10T03:33:58.628Z,0
2022-10-10T03:34:58.639Z,0
2022-10-10T03:35:58.152Z,0
2022-10-10T03:36:58.701Z,0
2022-10-10T03:37:58.445Z,0
2022-10-10T03:38:58.701Z,0
2022-10-10T03:39:58.732Z,0
2022-10-10T03:40:58.998Z,0
2022-10-10T03:41:58.491Z,0
2022-10-10T03:43:00.151Z,0
2022-10-10T03:43:59.134Z,0
2022-10-10T03:44:58.917Z,0
2022-10-10T03:45:58.822Z,0
2022-10-10T03:46:59.109Z,0
2022-10-10T03:47:58.610Z,0
2022-10-10T03:48:58.616Z,0
2022-10-10T03:49:59.191Z,0
2022-10-10T03:50:59.161Z,0
2022-10-10T03:51:59.184Z,0
2022-10-10T03:52:59.756Z,0
2022-10-10T03:53:59.214Z,0
2022-10-10T03:54:58.974Z,0
2022-10-10T03:55:59.247Z,0
2022-10-10T03:56:59.007Z,0
2022-10-10T03:57:58.769Z,0
2022-10-10T03:58:58.533Z,0
2022-10-10T03:59:59.132Z,0
2022-10-10T04:00:59.086Z,0
2022-10-10T04:01:59.100Z,0
2022-10-10T04:03:00.541Z,0
2022-10-10T04:04:01.655Z,0
2022-10-10T04:04:59.404Z,0
2022-10-10T04:05:58.902Z,0
2022-10-10T04:06:58.909Z,0
2022-10-10T04:07:58.672Z,0
2022-10-10T04:08:59.226Z,0
2022-10-10T04:09:58.965Z,0
2022-10-10T04:10:59.455Z,0
2022-10-10T04:11:59.284Z,0
2022-10-10T04:13:00.207Z,0
2022-10-10T04:13:59.032Z,0
2022-10-10T04:14:59.563Z,0
2022-10-10T04:15:59.409Z,0
2022-10-10T04:17:03.571Z,0
2022-10-10T04:17:59.121Z,0
2022-10-10T04:18:59.414Z,0
2022-10-10T04:19:59.641Z,0
2022-10-10T04:20:59.412Z,0
2022-10-10T04:21:59.685Z,0
2022-10-10T04:23:00.671Z,0
2022-10-10T04:23:59.452Z,0
2022-10-10T04:24:59.243Z,0
2022-10-10T04:25:59.491Z,0
2022-10-10T04:26:59.500Z,0
2022-10-10T04:28:05.805Z,0
2022-10-10T04:28:59.815Z,0
2022-10-10T04:29:59.038Z,0
2022-10-10T04:30:59.843Z,0
2022-10-10T04:31:59.936Z,0
2022-10-10T04:33:00.777Z,0
2022-10-10T04:33:59.619Z,0
2022-10-10T04:34:59.920Z,0
2022-10-10T04:35:59.935Z,0
2022-10-10T04:36:59.430Z,0
2022-10-10T04:37:59.450Z,0
2022-10-10T04:38:59.701Z,0
2022-10-10T04:39:59.719Z,0
2022-10-10T04:40:59.775Z,0
2022-10-10T04:41:59.791Z,0
2022-10-10T04:43:00.615Z,0
2022-10-10T04:43:59.797Z,0
2022-10-10T04:44:59.547Z,0
2022-10-10T04:46:00.083Z,0
2022-10-10T04:46:59.851Z,0
2022-10-10T04:48:00.242Z,0
2022-10-10T04:48:59.349Z,0
2022-10-10T04:49:59.643Z,0
2022-10-10T04:50:59.430Z,0
2022-10-10T04:51:59.950Z,0
2022-10-10T04:53:00.567Z,0
2022-10-10T04:54:00.182Z,0
2022-10-10T04:55:00.245Z,0
2022-10-10T04:55:59.743Z,0
2022-10-10T04:56:59.771Z,0
2022-10-10T04:58:00.293Z,0
2022-10-10T04:58:59.783Z,0
2022-10-10T05:00:00.091Z,0
2022-10-10T05:00:59.859Z,0
2022-10-10T05:02:05.194Z,0
2022-10-10T05:03:01.454Z,0
2022-10-10T05:04:00.458Z,0
2022-10-10T05:05:00.418Z,0
2022-10-10T05:06:00.201Z,0
2022-10-10T05:06:59.964Z,0
2022-10-10T05:08:04.857Z,0
2022-10-10T05:08:59.966Z,0
2022-10-10T05:10:00.259Z,0
2022-10-10T05:11:00.846Z,0
2022-10-10T05:11:59.494Z,0
2022-10-10T05:13:01.481Z,0
2022-10-10T05:14:00.282Z,0
2022-10-10T05:15:00.320Z,0
2022-10-10T05:16:00.332Z,0
2022-10-10T05:17:00.091Z,0
2022-10-10T05:18:00.106Z,0
2022-10-10T05:19:00.381Z,0
2022-10-10T05:20:00.767Z,0
2022-10-10T05:21:06.497Z,0
2022-10-10T05:22:00.452Z,0
2022-10-10T05:23:01.203Z,0
2022-10-10T05:24:00.203Z,0
2022-10-10T05:25:00.489Z,0
2022-10-10T05:26:00.758Z,0
2022-10-10T05:27:00.764Z,0
2022-10-10T05:28:00.524Z,0
2022-10-10T05:29:00.574Z,0
2022-10-10T05:30:00.563Z,0
2022-10-10T05:31:00.831Z,0
2022-10-10T05:32:00.869Z,0
2022-10-10T05:33:01.205Z,0
2022-10-10T05:34:00.892Z,0
2022-10-10T05:35:00.640Z,0
2022-10-10T05:36:00.994Z,0
2022-10-10T05:37:00.677Z,0
2022-10-10T05:38:01.050Z,0
2022-10-10T05:39:00.739Z,0
2022-10-10T05:40:04.508Z,0
2022-10-10T05:41:00.735Z,0
2022-10-10T05:42:00.764Z,0
2022-10-10T05:43:01.522Z,0
2022-10-10T05:44:00.788Z,0
2022-10-10T05:45:00.846Z,0
2022-10-10T05:46:01.083Z,0
2022-10-10T05:47:00.850Z,0
2022-10-10T05:48:00.871Z,0
2022-10-10T05:49:00.625Z,0
2022-10-10T05:50:00.899Z,0
2022-10-10T05:51:00.656Z,0
2022-10-10T05:52:01.302Z,5
2022-10-10T05:53:01.653Z,5
2022-10-10T05:54:00.957Z,5
2022-10-10T05:55:01.005Z,5
2022-10-10T05:56:01.004Z,5
2022-10-10T05:57:01.045Z,5
2022-10-10T05:58:00.780Z,5
2022-10-10T05:59:01.053Z,5
2022-10-10T06:00:00.797Z,5
2022-10-10T06:01:01.110Z,5
2022-10-10T06:02:01.355Z,5
2022-10-10T06:03:02.539Z,5
2022-10-10T06:04:01.384Z,10
2022-10-10T06:05:00.897Z,10
2022-10-10T06:06:01.422Z,10
2022-10-10T06:07:01.429Z,10
2022-10-10T06:08:19.395Z,10
2022-10-10T06:09:01.224Z,10
2022-10-10T06:10:00.983Z,10
2022-10-10T06:11:01.425Z,15
2022-10-10T06:12:01.516Z,15
2022-10-10T06:13:01.920Z,15
2022-10-10T06:14:01.462Z,15
2022-10-10T06:15:01.319Z,15
2022-10-10T06:16:00.811Z,20
2022-10-10T06:17:01.385Z,20
2022-10-10T06:18:01.369Z,20
2022-10-10T06:19:01.416Z,20
2022-10-10T06:20:01.413Z,20
2022-10-10T06:21:01.179Z,20
2022-10-10T06:22:01.166Z,25
2022-10-10T06:23:02.293Z,25
2022-10-10T06:24:01.806Z,25
2022-10-10T06:25:02.608Z,25
2022-10-10T06:26:01.496Z,25
2022-10-10T06:27:01.300Z,25
2022-10-10T06:28:01.554Z,25
2022-10-10T06:29:01.827Z,30
2022-10-10T06:30:01.557Z,30
2022-10-10T06:31:01.842Z,30
2022-10-10T06:32:01.625Z,30
2022-10-10T06:33:06.854Z,30
2022-10-10T06:34:01.631Z,30
2022-10-10T06:35:01.656Z,35
2022-10-10T06:36:01.921Z,35
2022-10-10T06:37:01.682Z,35
2022-10-10T06:38:01.461Z,35
2022-10-10T06:39:01.710Z,35
2022-10-10T06:40:02.080Z,35
2022-10-10T06:41:07.671Z,35
2022-10-10T06:42:01.508Z,40
2022-10-10T06:43:02.534Z,40
2022-10-10T06:44:01.808Z,40
2022-10-10T06:45:02.072Z,40
2022-10-10T06:46:01.587Z,40
2022-10-10T06:47:02.119Z,40
2022-10-10T06:48:01.861Z,40
2022-10-10T06:49:02.178Z,40
2022-10-10T06:50:01.641Z,45
2022-10-10T06:51:02.169Z,45
2022-10-10T06:52:01.933Z,40
2022-10-10T06:53:02.893Z,45
2022-10-10T06:54:01.707Z,45
2022-10-10T06:55:02.004Z,45
2022-10-10T06:56:02.433Z,45
2022-10-10T06:57:02.027Z,45
2022-10-10T06:58:02.043Z,45
2022-10-10T06:59:02.352Z,45
2022-10-10T07:00:01.301Z,45
2022-10-10T07:01:01.828Z,50
2022-10-10T07:02:02.077Z,50
2022-10-10T07:03:02.157Z,50
2022-10-10T07:04:01.884Z,50
2022-10-10T07:05:02.453Z,50
2022-10-10T07:06:01.907Z,50
2022-10-10T07:07:02.187Z,50
2022-10-10T07:08:01.943Z,50
2022-10-10T07:09:01.699Z,50
2022-10-10T07:10:02.223Z,50
2022-10-10T07:11:02.629Z,50
2022-10-10T07:12:02.351Z,50
2022-10-10T07:13:03.061Z,50
2022-10-10T07:14:02.309Z,50
2022-10-10T07:15:02.347Z,50
2022-10-10T07:16:02.080Z,50
2022-10-10T07:17:02.610Z,50
2022-10-10T07:18:04.129Z,50
2022-10-10T07:19:02.430Z,50
2022-10-10T07:20:02.429Z,50
2022-10-10T07:21:02.470Z,50
2022-10-10T07:22:02.691Z,50
2022-10-10T07:23:03.258Z,50
2022-10-10T07:24:02.746Z,50
2022-10-10T07:25:02.264Z,55
2022-10-10T07:26:02.275Z,55
2022-10-10T07:27:16.054Z,55
2022-10-10T07:28:02.544Z,55
2022-10-10T07:29:02.308Z,55
2022-10-10T07:30:02.240Z,55
2022-10-10T07:31:02.632Z,55
2022-10-10T07:32:02.904Z,55
2022-10-10T07:33:02.888Z,55
2022-10-10T07:34:02.398Z,55
2022-10-10T07:35:02.671Z,55
2022-10-10T07:36:02.939Z,55
2022-10-10T07:37:02.214Z,55
2022-10-10T07:38:02.193Z,55
2022-10-10T07:39:02.478Z,55
2022-10-10T07:40:02.775Z,50
2022-10-10T07:41:03.027Z,50
2022-10-10T07:42:02.514Z,55
2022-10-10T07:43:03.625Z,55
2022-10-10T07:44:02.882Z,55
2022-10-10T07:45:02.331Z,55
2022-10-10T07:46:03.417Z,55
2022-10-10T07:47:02.896Z,55
2022-10-10T07:48:03.346Z,60
2022-10-10T07:49:02.946Z,55
2022-10-10T07:50:02.891Z,55
2022-10-10T07:51:02.981Z,55
2022-10-10T07:52:09.028Z,55
2022-10-10T07:53:02.996Z,55
2022-10-10T07:54:03.018Z,55
2022-10-10T07:55:02.495Z,60
2022-10-10T07:56:02.773Z,60
2022-10-10T07:57:02.942Z,60
2022-10-10T07:58:04.374Z,55
2022-10-10T07:59:03.152Z,55
2022-10-10T08:00:03.183Z,55
2022-10-10T08:01:02.918Z,60
2022-10-10T08:02:03.836Z,60
2022-10-10T08:03:03.163Z,55
2022-10-10T08:04:03.162Z,55
2022-10-10T08:05:03.185Z,55
2022-10-10T08:06:03.463Z,55
2022-10-10T08:07:02.957Z,55
2022-10-10T08:08:03.810Z,55
2022-10-10T08:09:03.242Z,55
2022-10-10T08:10:03.028Z,55
2022-10-10T08:11:03.330Z,55
2022-10-10T08:12:02.926Z,55
2022-10-10T08:13:03.318Z,55
2022-10-10T08:14:03.079Z,55
2022-10-10T08:15:03.899Z,55
2022-10-10T08:16:03.637Z,55
2022-10-10T08:17:03.649Z,60
2022-10-10T08:18:04.115Z,60
2022-10-10T08:19:03.572Z,60
2022-10-10T08:20:03.207Z,55
2022-10-10T08:21:03.716Z,55
2022-10-10T08:22:03.222Z,55
2022-10-10T08:23:03.822Z,60
2022-10-10T08:24:03.273Z,60
2022-10-10T08:25:03.271Z,60
2022-10-10T08:26:03.790Z,60
2022-10-10T08:27:03.802Z,60
2022-10-10T08:28:03.320Z,60
2022-10-10T08:29:03.838Z,60
2022-10-10T08:30:03.873Z,60
2022-10-10T08:31:08.762Z,60
2022-10-10T08:32:03.651Z,60
2022-10-10T08:33:03.682Z,60
2022-10-10T08:34:03.691Z,60
2022-10-10T08:35:03.728Z,60
2022-10-10T08:36:03.709Z,60
2022-10-10T08:37:03.216Z,60
2022-10-10T08:38:03.745Z,60
2022-10-10T08:39:04.038Z,60
2022-10-10T08:40:04.106Z,60
2022-10-10T08:41:03.542Z,60
2022-10-10T08:42:03.571Z,55
2022-10-10T08:43:04.607Z,55
2022-10-10T08:44:03.871Z,55
2022-10-10T08:45:03.867Z,55
2022-10-10T08:46:04.171Z,55
2022-10-10T08:47:04.244Z,55
2022-10-10T08:48:03.937Z,55
2022-10-10T08:49:04.204Z,55
2022-10-10T08:50:04.318Z,55
2022-10-10T08:51:04.371Z,55
2022-10-10T08:52:03.990Z,55
2022-10-10T08:53:04.436Z,55
2022-10-10T08:54:04.298Z,60
2022-10-10T08:55:07.611Z,60
2022-10-10T08:56:04.327Z,60
2022-10-10T08:57:03.570Z,60
2022-10-10T08:58:04.359Z,60
2022-10-10T08:59:04.126Z,60
2022-10-10T09:00:03.922Z,60
2022-10-10T09:01:04.562Z,60
2022-10-10T09:02:57.295Z,55
2022-10-10T09:03:07.852Z,55
2022-10-10T09:04:06.676Z,60
2022-10-10T09:05:06.689Z,60
2022-10-10T09:06:07.002Z,60
2022-10-10T09:07:06.991Z,55
2022-10-10T09:08:07.343Z,55
2022-10-10T09:09:07.362Z,60
2022-10-10T09:10:06.801Z,60
2022-10-10T09:11:07.920Z,60
2022-10-10T09:12:07.368Z,60
2022-10-10T09:13:06.832Z,60
2022-10-10T09:14:06.843Z,60
2022-10-10T09:15:12.209Z,60
2022-10-10T09:16:07.407Z,60
2022-10-10T09:17:07.153Z,60
2022-10-10T09:18:07.517Z,60
2022-10-10T09:19:06.930Z,60
2022-10-10T09:20:07.025Z,65
2022-10-10T09:21:07.706Z,65
2022-10-10T09:22:07.536Z,65
2022-10-10T09:23:07.424Z,65
2022-10-10T09:24:07.051Z,65
2022-10-10T09:25:07.671Z,65
2022-10-10T09:26:13.694Z,65
2022-10-10T09:27:07.087Z,65
2022-10-10T09:28:07.523Z,65
2022-10-10T09:29:06.846Z,65
2022-10-10T09:30:07.176Z,65
2022-10-10T09:31:07.855Z,65
2022-10-10T09:32:07.174Z,65
2022-10-10T09:33:07.448Z,65
2022-10-10T09:34:07.795Z,70
2022-10-10T09:35:06.970Z,70
2022-10-10T09:36:07.503Z,70
2022-10-10T09:37:08.645Z,70
2022-10-10T09:38:07.560Z,70
2022-10-10T09:39:07.052Z,70
2022-10-10T09:40:07.563Z,70
2022-10-10T09:41:07.462Z,70
2022-10-10T09:42:07.862Z,70
2022-10-10T09:43:12.615Z,70
2022-10-10T09:44:07.654Z,70
2022-10-10T09:45:07.447Z,70
2022-10-10T09:46:07.432Z,65
2022-10-10T09:47:07.746Z,65
2022-10-10T09:48:07.718Z,65
2022-10-10T09:49:07.226Z,65
2022-10-10T09:50:09.052Z,65
2022-10-10T09:51:08.636Z,65
2022-10-10T09:52:07.521Z,65
2022-10-10T09:53:07.554Z,65
2022-10-10T09:54:07.681Z,65
2022-10-10T09:55:07.687Z,65
2022-10-10T09:56:07.892Z,65
2022-10-10T09:57:07.879Z,60
2022-10-10T09:58:08.165Z,60
2022-10-10T09:59:07.901Z,60
2022-10-10T10:00:13.293Z,60
2022-10-10T10:01:09.161Z,65
2022-10-10T10:02:07.953Z,60
2022-10-10T10:03:07.726Z,60
2022-10-10T10:04:37.079Z,60
2022-10-10T10:05:08.049Z,60
2022-10-10T10:06:08.481Z,60
2022-10-10T10:07:08.297Z,60
2022-10-10T10:08:08.326Z,60
2022-10-10T10:09:08.088Z,60
2022-10-10T10:10:08.190Z,60
2022-10-10T10:11:09.309Z,60
2022-10-10T10:12:07.628Z,60
2022-10-10T10:13:08.159Z,55
2022-10-10T10:14:08.464Z,60
2022-10-10T10:15:07.944Z,60
2022-10-10T10:16:08.449Z,55
2022-10-10T10:17:07.506Z,55
2022-10-10T10:18:08.244Z,60
2022-10-10T10:19:08.002Z,55
2022-10-10T10:20:13.381Z,55
2022-10-10T10:21:09.160Z,55
2022-10-10T10:22:08.813Z,55
2022-10-10T10:23:08.093Z,55
2022-10-10T10:24:07.836Z,55
2022-10-10T10:25:08.154Z,55
2022-10-10T10:26:09.917Z,50
2022-10-10T10:27:08.681Z,50
2022-10-10T10:28:08.547Z,50
2022-10-10T10:29:08.750Z,50
2022-10-10T10:30:09.245Z,50
2022-10-10T10:31:08.274Z,50
2022-10-10T10:32:08.773Z,50
2022-10-10T10:33:08.247Z,50
2022-10-10T10:34:08.347Z,50
2022-10-10T10:35:08.821Z,50
2022-10-10T10:36:09.415Z,50
2022-10-10T10:37:12.699Z,50
2022-10-10T10:38:09.019Z,50
2022-10-10T10:39:08.625Z,50
2022-10-10T10:40:08.636Z,50
2022-10-10T10:41:08.398Z,50
2022-10-10T10:42:08.455Z,50
2022-10-10T10:43:08.694Z,50
2022-10-10T10:44:08.454Z,50
2022-10-10T10:45:08.741Z,50
2022-10-10T10:46:09.205Z,50
2022-10-10T10:47:09.028Z,50
2022-10-10T10:48:09.058Z,50
2022-10-10T10:49:09.070Z,50
2022-10-10T10:50:08.599Z,50
2022-10-10T10:51:09.313Z,50
2022-10-10T10:52:09.117Z,50
2022-10-10T10:53:08.902Z,50
2022-10-10T10:54:08.986Z,50
2022-10-10T10:55:08.915Z,50
2022-10-10T10:56:08.932Z,50
2022-10-10T11:02:01.666Z,50
2022-10-10T11:02:26.194Z,50
2022-10-10T11:05:44.096Z,45
2022-10-10T11:05:54.869Z,45
2022-10-10T11:07:27.661Z,45
2022-10-10T11:07:54.005Z,45
2022-10-10T11:08:53.793Z,45
2022-10-10T11:10:00.187Z,45
2022-10-10T11:10:53.828Z,45
2022-10-10T11:11:54.362Z,50
2022-10-10T11:12:54.701Z,50
2022-10-10T11:13:54.414Z,50
2022-10-10T11:14:54.440Z,50
2022-10-10T11:16:56.328Z,50
2022-10-10T11:17:06.171Z,50
2022-10-10T11:18:06.445Z,50
2022-10-10T11:19:06.435Z,50
2022-10-10T11:20:06.254Z,50
2022-10-10T11:21:07.969Z,50
2022-10-10T11:22:06.231Z,45
2022-10-10T11:23:11.928Z,45
2022-10-10T11:24:05.757Z,45
2022-10-10T11:25:06.641Z,45
2022-10-10T11:26:06.560Z,45
2022-10-10T11:27:06.334Z,45
2022-10-10T11:28:06.418Z,50
2022-10-10T11:29:06.549Z,50
2022-10-10T11:30:06.429Z,55
2022-10-10T11:31:08.390Z,55
2022-10-10T11:32:06.568Z,55
2022-10-10T11:33:06.470Z,50
2022-10-10T11:34:07.282Z,50
2022-10-10T11:35:06.482Z,50
2022-10-10T11:36:07.988Z,55
2022-10-10T11:37:06.250Z,55
2022-10-10T11:38:06.004Z,55
2022-10-10T11:39:06.447Z,55
2022-10-10T11:40:06.326Z,55
2022-10-10T11:41:06.944Z,55
2022-10-10T11:42:06.873Z,55
2022-10-10T11:43:06.094Z,55
2022-10-10T11:44:06.638Z,55
2022-10-10T11:45:06.910Z,55
2022-10-10T11:46:13.021Z,50
2022-10-10T11:47:06.161Z,50
2022-10-10T11:48:06.982Z,50
2022-10-10T11:49:06.494Z,50
2022-10-10T11:50:06.470Z,55
2022-10-10T11:51:07.018Z,60
2022-10-10T11:52:40.748Z,60
2022-10-10T11:53:06.571Z,60
2022-10-10T11:54:07.064Z,60
2022-10-10T11:55:07.099Z,60
2022-10-10T11:56:08.543Z,60
2022-10-10T11:57:12.674Z,60
2022-10-10T11:58:06.897Z,60
2022-10-10T11:59:06.649Z,60
2022-10-10T12:00:07.184Z,60
2022-10-10T12:01:07.239Z,65
2022-10-10T12:02:08.297Z,65
2022-10-10T12:03:06.979Z,65
2022-10-10T12:04:07.004Z,65
2022-10-10T12:05:07.094Z,70
2022-10-10T12:06:08.851Z,65
2022-10-10T12:07:07.075Z,65
2022-10-10T12:08:06.840Z,65
2022-10-10T12:09:06.850Z,70
2022-10-10T12:10:06.861Z,70
2022-10-10T12:11:06.873Z,70
2022-10-10T12:12:06.887Z,75
2022-10-10T12:13:07.749Z,70
2022-10-10T12:14:07.457Z,70
2022-10-10T12:15:07.471Z,70
2022-10-10T12:16:08.352Z,70
2022-10-10T12:17:06.989Z,70
2022-10-10T12:18:07.300Z,70
2022-10-10T12:19:07.296Z,70
2022-10-10T12:20:07.310Z,75
2022-10-10T12:21:07.805Z,75
2022-10-10T12:22:07.327Z,70
2022-10-10T12:23:07.502Z,70
2022-10-10T12:24:07.779Z,65
2022-10-10T12:25:07.191Z,65
2022-10-10T12:26:08.918Z,70
2022-10-10T12:27:07.439Z,70
2022-10-10T12:28:07.523Z,65
2022-10-10T12:29:07.794Z,65
2022-10-10T12:30:07.508Z,65
2022-10-10T12:31:09.423Z,65
2022-10-10T12:32:07.808Z,65
2022-10-10T12:33:07.652Z,70
2022-10-10T12:34:07.434Z,70
2022-10-10T12:35:07.837Z,65
2022-10-10T12:36:08.213Z,65
2022-10-10T12:37:13.588Z,65
2022-10-10T12:38:08.131Z,70
2022-10-10T12:39:10.444Z,70
2022-10-10T12:40:08.024Z,75
2022-10-10T12:41:08.971Z,75
2022-10-10T12:42:08.028Z,80
2022-10-10T12:43:08.060Z,80
2022-10-10T12:44:07.853Z,85
2022-10-10T12:45:08.113Z,85
2022-10-10T12:46:07.850Z,90
2022-10-10T12:47:12.937Z,90
2022-10-10T12:48:16.351Z,90
2022-10-10T12:49:08.121Z,85
2022-10-10T12:50:07.711Z,90
2022-10-10T12:51:08.846Z,90
2022-10-10T12:52:07.683Z,90
2022-10-10T12:53:08.211Z,90
2022-10-10T12:54:08.209Z,85
2022-10-10T12:55:14.153Z,85
2022-10-10T12:56:08.076Z,90
2022-10-10T12:57:07.999Z,90
2022-10-10T12:58:08.063Z,95
2022-10-10T12:59:08.344Z,90
2022-10-10T13:00:11.941Z,90
2022-10-10T13:01:09.516Z,90
2022-10-10T13:02:08.652Z,95
2022-10-10T13:03:07.900Z,95
2022-10-10T13:04:08.439Z,100
2022-10-10T13:05:08.403Z,100
2022-10-10T13:06:08.205Z,100
2022-10-10T13:07:07.950Z,100
2022-10-10T13:08:08.209Z,100
2022-10-10T13:09:08.518Z,100
2022-10-10T13:10:08.064Z,100
2022-10-10T13:11:09.626Z,100
2022-10-10T13:12:08.055Z,95
2022-10-10T13:13:08.396Z,95
2022-10-10T13:14:08.466Z,95
2022-10-10T13:15:08.081Z,100
2022-10-10T13:16:08.446Z,100
2022-10-10T13:17:08.392Z,100
2022-10-10T13:18:08.150Z,100
2022-10-10T13:19:08.447Z,100
2022-10-10T13:20:08.224Z,100
2022-10-10T13:21:09.778Z,100
2022-10-10T13:22:08.296Z,100
2022-10-10T13:23:09.520Z,100
2022-10-10T13:24:13.396Z,95
2022-10-10T13:25:08.797Z,90
2022-10-10T13:26:08.048Z,90
2022-10-10T13:27:08.587Z,85
2022-10-10T13:28:08.948Z,85
2022-10-10T13:29:08.613Z,85
2022-10-10T13:30:08.802Z,90
2022-10-10T13:31:09.662Z,90
2022-10-10T13:32:08.999Z,95
2022-10-10T13:33:08.177Z,95
2022-10-10T13:34:08.985Z,95
2022-10-10T13:35:08.491Z,100
2022-10-10T13:36:08.507Z,95
2022-10-10T13:37:08.774Z,95
2022-10-10T13:38:08.860Z,95
2022-10-10T13:39:09.083Z,95
2022-10-10T13:40:08.853Z,90
2022-10-10T13:41:10.680Z,90
2022-10-10T13:42:08.909Z,90
2022-10-10T13:43:08.930Z,85
2022-10-10T13:44:08.919Z,80
2022-10-10T13:45:08.942Z,80
2022-10-10T13:46:08.961Z,75
2022-10-10T13:47:08.462Z,75
2022-10-10T13:48:09.372Z,75
2022-10-10T13:49:08.759Z,75
2022-10-10T13:50:08.844Z,80
2022-10-10T13:51:10.375Z,80
2022-10-10T13:52:09.082Z,80
2022-10-10T13:53:08.575Z,80
2022-10-10T13:54:08.884Z,80
2022-10-10T13:55:09.588Z,80
2022-10-10T13:56:09.017Z,75
2022-10-10T13:57:08.925Z,75
2022-10-10T13:58:11.556Z,75
2022-10-10T13:59:08.708Z,75
2022-10-10T14:00:09.354Z,80
2022-10-10T14:01:10.154Z,80
2022-10-10T14:02:09.551Z,80
2022-10-10T14:03:09.131Z,80
2022-10-10T14:04:09.637Z,80
2022-10-10T14:05:09.070Z,80
2022-10-10T14:06:09.610Z,75
2022-10-10T14:07:09.121Z,75
2022-10-10T14:08:09.396Z,75
2022-10-10T14:09:09.395Z,70
2022-10-10T14:10:09.515Z,70
2022-10-10T14:11:11.099Z,70
2022-10-10T14:12:09.510Z,65
2022-10-10T14:13:09.836Z,65
2022-10-10T14:14:09.514Z,65
2022-10-10T14:15:09.045Z,60
2022-10-10T14:16:09.537Z,60
2022-10-10T14:17:09.056Z,55
2022-10-10T14:18:09.582Z,55
2022-10-10T14:19:09.347Z,55
2022-10-10T14:20:09.966Z,60
2022-10-10T14:21:10.817Z,60
2022-10-10T14:22:09.657Z,65
2022-10-10T14:23:09.685Z,65
2022-10-10T14:24:10.118Z,65
2022-10-10T14:25:09.607Z,65
2022-10-10T14:26:09.428Z,65
2022-10-10T14:27:10.176Z,60
2022-10-10T14:28:10.514Z,60
2022-10-10T14:29:09.891Z,60
2022-10-10T14:30:09.579Z,60
2022-10-10T14:31:10.881Z,65
2022-10-10T14:32:09.350Z,70
2022-10-10T14:33:09.615Z,75
2022-10-10T14:34:09.680Z,75